createdAt,value
2017-12-05T00:00:40.124Z,62.57
2017-12-05T00:01:40.168Z,62.67
2017-12-05T00:02:40.537Z,62.77
2017-12-05T00:03:40.332Z,63.15
2017-12-05T00:04:40.311Z,62.96
2017-12-05T00:05:40.294Z,62.67
2017-12-05T00:06:40.379Z,63.15
2017-12-05T00:07:40.337Z,62.96
2017-12-05T00:08:40.366Z,63.34
2017-12-05T00:09:40.751Z,63.44
2017-12-05T00:10:40.474Z,62.87
2017-12-05T00:11:40.485Z,63.25
2017-12-05T00:12:40.520Z,63.44
2017-12-05T00:13:40.593Z,62.77
2017-12-05T00:14:40.619Z,62.77
2017-12-05T00:15:40.955Z,63.15
2017-12-05T00:16:40.613Z,62.77
2017-12-05T00:17:40.661Z,62.96
2017-12-05T00:18:40.694Z,63.25
2017-12-05T00:19:40.726Z,63.15
2017-12-05T00:20:40.813Z,63.25
2017-12-05T00:21:41.066Z,62.77
2017-12-05T00:22:40.798Z,63.15
2017-12-05T00:23:40.846Z,63.06
2017-12-05T00:24:40.877Z,62.87
2017-12-05T00:25:40.958Z,62.96
2017-12-05T00:26:41.001Z,63.34
2017-12-05T00:27:41.320Z,63.06
2017-12-05T00:28:41.036Z,63.34
2017-12-05T00:29:41.032Z,63.44
2017-12-05T00:30:41.047Z,63.25
2017-12-05T00:31:41.144Z,62.67
2017-12-05T00:32:41.223Z,62.67
2017-12-05T00:33:41.493Z,62.96
2017-12-05T00:34:41.239Z,63.06
2017-12-05T00:35:41.214Z,62.87
2017-12-05T00:36:41.303Z,62.77
2017-12-05T00:37:41.263Z,62.77
2017-12-05T00:38:41.342Z,62.67
2017-12-05T00:39:41.693Z,63.44
2017-12-05T00:40:41.373Z,62.77
2017-12-05T00:41:41.403Z,62.96
2017-12-05T00:42:41.422Z,62.87
2017-12-05T00:43:41.469Z,62.87
2017-12-05T00:44:41.529Z,62.77
2017-12-05T00:45:41.888Z,62.96
2017-12-05T00:46:41.590Z,63.44
2017-12-05T00:47:41.621Z,62.67
2017-12-05T00:48:41.650Z,62.87
2017-12-05T00:49:41.662Z,62.77
2017-12-05T00:50:41.710Z,62.77
2017-12-05T00:51:42.059Z,63.44
2017-12-05T00:52:41.731Z,62.77
2017-12-05T00:53:41.817Z,62.67
2017-12-05T00:54:41.894Z,62.67
2017-12-05T00:55:41.867Z,63.25
2017-12-05T00:56:41.853Z,63.25
2017-12-05T00:57:42.226Z,63.06
2017-12-05T00:58:41.910Z,63.25
2017-12-05T00:59:42.009Z,63.34
2017-12-05T01:00:42.020Z,63.44
2017-12-05T01:01:42.217Z,63.34
2017-12-05T01:02:42.086Z,63.15
2017-12-05T01:03:42.416Z,63.15
2017-12-05T01:04:42.095Z,63.15
2017-12-05T01:05:42.207Z,63.06
2017-12-05T01:06:42.173Z,63.25
2017-12-05T01:07:42.237Z,63.44
2017-12-05T01:08:42.222Z,63.34
2017-12-05T01:09:42.613Z,63.15
2017-12-05T01:10:42.350Z,63.25
2017-12-05T01:11:42.323Z,62.96
2017-12-05T01:12:42.663Z,62.96
2017-12-05T01:13:42.369Z,63.15
2017-12-05T01:14:42.400Z,62.96
2017-12-05T01:15:42.782Z,63.06
2017-12-05T01:16:42.517Z,63.06
2017-12-05T01:17:42.511Z,63.06
2017-12-05T01:18:42.574Z,62.77
2017-12-05T01:19:42.569Z,62.77
2017-12-05T01:20:42.642Z,63.44
2017-12-05T01:21:42.966Z,63.15
2017-12-05T01:22:42.715Z,62.87
2017-12-05T01:23:42.695Z,62.87
2017-12-05T01:24:42.821Z,62.77
2017-12-05T01:25:42.805Z,62.67
2017-12-05T01:26:42.794Z,62.67
2017-12-05T01:27:42.866Z,63.15
2017-12-05T01:28:43.184Z,62.67
2017-12-05T01:29:42.928Z,62.57
2017-12-05T01:30:42.960Z,62.67
2017-12-05T01:31:42.939Z,62.77
2017-12-05T01:32:42.954Z,62.87
2017-12-05T01:33:43.014Z,62.77
2017-12-05T01:34:43.083Z,62.87
2017-12-05T01:35:43.418Z,62.67
2017-12-05T01:36:43.094Z,62.57
2017-12-05T01:37:43.128Z,62.87
2017-12-05T01:38:43.203Z,62.77
2017-12-05T01:39:43.317Z,62.77
2017-12-05T01:40:43.255Z,62.77
2017-12-05T01:41:43.253Z,62.77
2017-12-05T01:42:43.578Z,62.77
2017-12-05T01:43:43.307Z,62.57
2017-12-05T01:44:43.324Z,62.87
2017-12-05T01:45:43.421Z,62.87
2017-12-05T01:46:43.409Z,63.06
2017-12-05T01:47:43.463Z,62.77
2017-12-05T01:48:43.448Z,62.77
2017-12-05T01:49:43.546Z,62.77
2017-12-05T01:50:43.514Z,62.96
2017-12-05T01:51:43.688Z,62.67
2017-12-05T01:52:43.567Z,63.15
2017-12-05T01:53:43.595Z,62.29
2017-12-05T01:54:43.629Z,62.38
2017-12-05T01:55:44.009Z,62.77
2017-12-05T01:56:43.750Z,62.77
2017-12-05T01:57:43.820Z,62.77
2017-12-05T01:58:43.751Z,63.34
2017-12-05T01:59:43.848Z,62.77
2017-12-05T02:00:43.880Z,62.87
2017-12-05T02:01:43.909Z,62.77
2017-12-05T02:02:44.226Z,62.96
2017-12-05T02:03:43.952Z,63.34
2017-12-05T02:04:43.956Z,62.87
2017-12-05T02:05:43.964Z,62.77
2017-12-05T02:06:44.029Z,63.25
2017-12-05T02:07:44.099Z,63.25
2017-12-05T02:08:44.134Z,63.34
2017-12-05T02:09:44.438Z,62.87
2017-12-05T02:10:44.187Z,63.15
2017-12-05T02:11:44.152Z,62.96
2017-12-05T02:12:44.251Z,62.96
2017-12-05T02:13:44.229Z,63.15
2017-12-05T02:14:44.315Z,62.67
2017-12-05T02:15:44.384Z,63.06
2017-12-05T02:16:44.676Z,63.44
2017-12-05T02:17:44.397Z,62.96
2017-12-05T02:18:44.439Z,62.77
2017-12-05T02:19:44.416Z,62.67
2017-12-05T02:20:44.501Z,63.25
2017-12-05T02:21:44.626Z,62.96
2017-12-05T02:22:44.485Z,62.77
2017-12-05T02:23:44.888Z,62.67
2017-12-05T02:24:44.550Z,62.29
2017-12-05T02:25:44.579Z,62.67
2017-12-05T02:26:44.612Z,62.87
2017-12-05T02:27:44.723Z,62.77
2017-12-05T02:28:44.753Z,62.87
2017-12-05T02:29:44.719Z,62.77
2017-12-05T02:30:45.106Z,62.48
2017-12-05T02:31:44.767Z,62.57
2017-12-05T02:32:44.814Z,62.57
2017-12-05T02:33:44.898Z,63.06
2017-12-05T02:34:44.854Z,62.77
2017-12-05T02:35:44.945Z,62.77
2017-12-05T02:36:45.012Z,62.77
2017-12-05T02:37:45.301Z,62.67
2017-12-05T02:38:45.060Z,62.77
2017-12-05T02:39:45.023Z,62.77
2017-12-05T02:40:45.043Z,62.77
2017-12-05T02:41:45.086Z,63.15
2017-12-05T02:42:45.126Z,63.34
2017-12-05T02:43:45.197Z,63.25
2017-12-05T02:44:45.485Z,63.44
2017-12-05T02:45:45.274Z,63.15
2017-12-05T02:46:45.224Z,62.96
2017-12-05T02:47:45.275Z,62.57
2017-12-05T02:48:45.701Z,63.44
2017-12-05T02:49:45.380Z,62.77
2017-12-05T02:50:45.695Z,62.67
2017-12-05T02:51:45.447Z,62.77
2017-12-05T02:52:45.405Z,62.87
2017-12-05T02:53:45.436Z,62.67
2017-12-05T02:54:45.542Z,63.06
2017-12-05T02:55:45.548Z,62.77
2017-12-05T02:56:45.898Z,63.25
2017-12-05T02:57:45.584Z,62.77
2017-12-05T02:58:45.607Z,62.87
2017-12-05T02:59:45.657Z,63.06
2017-12-05T03:00:45.819Z,62.96
2017-12-05T03:01:45.705Z,63.15
2017-12-05T03:02:46.080Z,62.96
2017-12-05T03:03:45.749Z,62.87
2017-12-05T03:04:45.791Z,63.34
2017-12-05T03:05:45.822Z,62.96
2017-12-05T03:06:45.904Z,62.96
2017-12-05T03:07:45.917Z,63.25
2017-12-05T03:08:46.253Z,63.15
2017-12-05T03:09:45.931Z,63.15
2017-12-05T03:10:46.011Z,62.87
2017-12-05T03:11:46.059Z,62.96
2017-12-05T03:12:46.119Z,62.96
2017-12-05T03:13:46.116Z,63.15
2017-12-05T03:14:46.449Z,62.96
2017-12-05T03:15:46.178Z,63.06
2017-12-05T03:16:46.196Z,62.77
2017-12-05T03:17:46.172Z,62.87
2017-12-05T03:18:46.405Z,63.25
2017-12-05T03:19:46.238Z,62.96
2017-12-05T03:20:46.776Z,62.77
2017-12-05T03:21:46.311Z,62.87
2017-12-05T03:22:46.355Z,63.06
2017-12-05T03:23:46.406Z,62.96
2017-12-05T03:24:46.458Z,62.87
2017-12-05T03:25:46.468Z,62.96
2017-12-05T03:26:46.826Z,62.77
2017-12-05T03:27:46.560Z,62.96
2017-12-05T03:28:46.579Z,62.87
2017-12-05T03:29:46.544Z,63.15
2017-12-05T03:30:46.629Z,63.06
2017-12-05T03:31:46.623Z,63.06
2017-12-05T03:32:46.990Z,63.15
2017-12-05T03:33:46.687Z,62.96
2017-12-05T03:34:46.713Z,62.96
2017-12-05T03:35:46.777Z,63.15
2017-12-05T03:36:47.258Z,63.06
2017-12-05T03:37:46.789Z,62.77
2017-12-05T03:38:47.191Z,62.96
2017-12-05T03:39:46.851Z,62.77
2017-12-05T03:40:46.951Z,63.15
2017-12-05T03:41:46.928Z,62.96
2017-12-05T03:42:47.063Z,63.34
2017-12-05T03:43:47.053Z,62.87
2017-12-05T03:44:47.354Z,63.15
2017-12-05T03:45:47.086Z,63.06
2017-12-05T03:46:47.168Z,63.06
2017-12-05T03:47:47.162Z,62.96
2017-12-05T03:48:47.150Z,62.96
2017-12-05T03:49:47.157Z,62.96
2017-12-05T03:50:47.538Z,63.15
2017-12-05T03:51:47.226Z,63.15
2017-12-05T03:52:47.302Z,63.34
2017-12-05T03:53:47.334Z,63.25
2017-12-05T03:54:47.391Z,63.44
2017-12-05T03:55:47.392Z,62.77
2017-12-05T03:56:47.739Z,63.44
2017-12-05T03:57:47.470Z,62.77
2017-12-05T03:58:47.500Z,63.34
2017-12-05T03:59:47.536Z,63.06
2017-12-05T04:00:47.547Z,62.87
2017-12-05T04:01:47.618Z,62.77
2017-12-05T04:02:47.621Z,63.25
2017-12-05T04:03:47.941Z,63.06
2017-12-05T04:04:47.634Z,62.96
2017-12-05T04:05:47.819Z,63.44
2017-12-05T04:06:47.681Z,63.15
2017-12-05T04:07:47.731Z,62.96
2017-12-05T04:08:47.804Z,62.77
2017-12-05T04:09:47.837Z,63.06
2017-12-05T04:10:48.190Z,62.96
2017-12-05T04:11:47.955Z,62.96
2017-12-05T04:12:47.963Z,62.77
2017-12-05T04:13:47.895Z,62.77
2017-12-05T04:14:47.944Z,62.77
2017-12-05T04:15:47.957Z,62.87
2017-12-05T04:16:47.998Z,62.87
2017-12-05T04:17:48.583Z,62.57
2017-12-05T04:18:48.252Z,62.67
2017-12-05T04:19:48.079Z,62.87
2017-12-05T04:20:48.114Z,62.87
2017-12-05T04:21:48.148Z,62.77
2017-12-05T04:22:48.200Z,62.67
2017-12-05T04:23:48.222Z,62.77
2017-12-05T04:24:48.614Z,62.67
2017-12-05T04:25:48.333Z,62.77
2017-12-05T04:26:48.294Z,62.77
2017-12-05T04:27:48.440Z,62.77
2017-12-05T04:28:48.360Z,62.67
2017-12-05T04:29:48.437Z,62.67
2017-12-05T04:30:48.487Z,62.77
2017-12-05T04:31:48.826Z,63.06
2017-12-05T04:32:48.542Z,62.19
2017-12-05T04:33:48.510Z,62.87
2017-12-05T04:34:48.863Z,62.67
2017-12-05T04:35:48.658Z,62.67
2017-12-05T04:36:48.733Z,62.77
2017-12-05T04:37:48.635Z,62.77
2017-12-05T04:38:49.019Z,62.67
2017-12-05T04:39:48.698Z,62.77
2017-12-05T04:40:48.778Z,62.77
2017-12-05T04:41:48.759Z,62.77
2017-12-05T04:42:48.789Z,62.77
2017-12-05T04:43:48.817Z,62.87
2017-12-05T04:44:48.921Z,62.77
2017-12-05T04:45:49.248Z,62.87
2017-12-05T04:46:48.934Z,62.87
2017-12-05T04:47:49.022Z,62.77
2017-12-05T04:48:48.993Z,62.77
2017-12-05T04:49:49.058Z,62.87
2017-12-05T04:50:49.034Z,62.67
2017-12-05T04:51:49.117Z,62.67
2017-12-05T04:52:49.463Z,62.87
2017-12-05T04:53:49.194Z,62.77
2017-12-05T04:54:49.227Z,62.77
2017-12-05T04:55:49.273Z,62.96
2017-12-05T04:56:49.256Z,62.77
2017-12-05T04:57:49.323Z,62.77
2017-12-05T04:58:49.312Z,62.77
2017-12-05T04:59:49.688Z,62.77
2017-12-05T05:00:49.365Z,62.77
2017-12-05T05:01:49.494Z,62.77
2017-12-05T05:02:49.405Z,62.87
2017-12-05T05:03:49.440Z,62.87
2017-12-05T05:04:49.471Z,62.87
2017-12-05T05:05:49.535Z,62.87
2017-12-05T05:06:49.912Z,62.77
2017-12-05T05:07:49.623Z,62.87
2017-12-05T05:08:49.606Z,62.77
2017-12-05T05:09:49.618Z,62.77
2017-12-05T05:10:49.743Z,62.57
2017-12-05T05:11:49.812Z,62.77
2017-12-05T05:12:49.730Z,62.67
2017-12-05T05:13:50.113Z,62.67
2017-12-05T05:14:49.824Z,62.77
2017-12-05T05:15:49.847Z,62.87
2017-12-05T05:16:49.835Z,62.77
2017-12-05T05:17:49.937Z,62.57
2017-12-05T05:18:49.953Z,62.67
2017-12-05T05:19:50.294Z,62.87
2017-12-05T05:20:50.034Z,63.06
2017-12-05T05:21:50.051Z,62.87
2017-12-05T05:22:50.019Z,62.87
2017-12-05T05:23:50.079Z,62.87
2017-12-05T05:24:50.135Z,62.77
2017-12-05T05:25:50.462Z,62.87
2017-12-05T05:26:50.193Z,62.77
2017-12-05T05:27:50.174Z,62.19
2017-12-05T05:28:50.205Z,62.87
2017-12-05T05:29:50.286Z,62.48
2017-12-05T05:30:50.301Z,63.06
2017-12-05T05:31:50.653Z,62.67
2017-12-05T05:32:50.394Z,62.87
2017-12-05T05:33:50.378Z,63.06
2017-12-05T05:34:50.460Z,62.29
2017-12-05T05:35:50.487Z,62.87
2017-12-05T05:36:50.475Z,62.96
2017-12-05T05:37:50.837Z,62.38
2017-12-05T05:38:50.515Z,62.87
2017-12-05T05:39:50.593Z,63.06
2017-12-05T05:40:50.722Z,62.57
2017-12-05T05:41:50.608Z,62.87
2017-12-05T05:42:50.656Z,62.19
2017-12-05T05:43:51.015Z,62.77
2017-12-05T05:44:50.699Z,63.06
2017-12-05T05:45:50.731Z,62.87
2017-12-05T05:46:50.824Z,62.67
2017-12-05T05:47:50.790Z,62.77
2017-12-05T05:48:50.868Z,62.29
2017-12-05T05:49:51.203Z,62.29
2017-12-05T05:50:50.900Z,62.38
2017-12-05T05:51:50.927Z,62.87
2017-12-05T05:52:50.997Z,62.67
2017-12-05T05:53:50.992Z,62.87
2017-12-05T05:54:51.082Z,62.87
2017-12-05T05:55:51.390Z,62.57
2017-12-05T05:56:51.074Z,63.06
2017-12-05T05:57:51.103Z,62.87
2017-12-05T05:58:51.177Z,62.96
2017-12-05T05:59:51.207Z,62.57
2017-12-05T06:00:51.252Z,62.77
2017-12-05T06:01:51.574Z,62.77
2017-12-05T06:02:51.301Z,62.87
2017-12-05T06:03:51.505Z,62.87
2017-12-05T06:04:51.334Z,62.87
2017-12-05T06:05:51.422Z,62.87
2017-12-05T06:06:51.380Z,62.77
2017-12-05T06:07:51.767Z,63.06
2017-12-05T06:08:51.452Z,62.38
2017-12-05T06:09:51.578Z,62.77
2017-12-05T06:10:51.501Z,63.15
2017-12-05T06:11:51.543Z,62.77
2017-12-05T06:12:51.615Z,62.38
2017-12-05T06:13:51.944Z,62.87
2017-12-05T06:14:51.637Z,63.15
2017-12-05T06:15:51.706Z,62.87
2017-12-05T06:16:51.699Z,62.96
2017-12-05T06:17:51.800Z,62.77
2017-12-05T06:18:51.768Z,62.87
2017-12-05T06:19:52.150Z,62.87
2017-12-05T06:20:51.871Z,62.77
2017-12-05T06:21:51.916Z,62.77
2017-12-05T06:22:51.896Z,62.87
2017-12-05T06:23:51.900Z,62.87
2017-12-05T06:24:51.950Z,62.77
2017-12-05T06:25:51.962Z,62.96
2017-12-05T06:26:52.060Z,62.67
2017-12-05T06:27:52.086Z,62.77
2017-12-05T06:28:52.061Z,62.29
2017-12-05T06:29:52.084Z,62.38
2017-12-05T06:30:52.113Z,62.57
2017-12-05T06:31:52.513Z,62.19
2017-12-05T06:32:52.188Z,62.38
2017-12-05T06:33:52.274Z,62.38
2017-12-05T06:34:52.313Z,62.57
2017-12-05T06:35:52.322Z,62.57
2017-12-05T06:36:52.314Z,63.06
2017-12-05T06:37:52.409Z,62.96
2017-12-05T06:38:52.715Z,62.87
2017-12-05T06:39:52.507Z,62.38
2017-12-05T06:40:52.508Z,62.48
2017-12-05T06:41:52.502Z,62.57
2017-12-05T06:42:52.498Z,62.48
2017-12-05T06:43:52.593Z,62.48
2017-12-05T06:44:52.553Z,62.19
2017-12-05T06:45:53.060Z,62.48
2017-12-05T06:46:52.624Z,62.29
2017-12-05T06:47:52.678Z,62.96
2017-12-05T06:48:52.682Z,62.38
2017-12-05T06:49:52.747Z,62.48
2017-12-05T06:50:52.729Z,62.38
2017-12-05T06:51:52.858Z,62.29
2017-12-05T06:52:53.156Z,62.77
2017-12-05T06:53:52.899Z,62.67
2017-12-05T06:54:52.910Z,62.67
2017-12-05T06:55:53.152Z,62.67
2017-12-05T06:56:53.014Z,62.77
2017-12-05T06:57:52.954Z,62.87
2017-12-05T06:58:53.099Z,62.67
2017-12-05T06:59:53.375Z,62.57
2017-12-05T07:00:53.117Z,62.38
2017-12-05T07:01:53.159Z,62.48
2017-12-05T07:02:53.185Z,62.57
2017-12-05T07:03:53.129Z,62.67
2017-12-05T07:04:53.172Z,62.29
2017-12-05T07:05:53.307Z,62.29
2017-12-05T07:06:53.592Z,62.38
2017-12-05T07:07:53.281Z,62.38
2017-12-05T07:08:53.356Z,62.19
2017-12-05T07:09:53.312Z,62.19
2017-12-05T07:10:53.382Z,62.38
2017-12-05T07:11:53.441Z,62.29
2017-12-05T07:12:53.405Z,62.38
2017-12-05T07:13:53.848Z,62.19
2017-12-05T07:14:53.467Z,62.48
2017-12-05T07:15:53.515Z,62.38
2017-12-05T07:16:53.578Z,62.67
2017-12-05T07:17:53.622Z,62.77
2017-12-05T07:18:53.644Z,62.57
2017-12-05T07:19:53.733Z,62.87
2017-12-05T07:20:53.999Z,62.77
2017-12-05T07:21:53.734Z,62.96
2017-12-05T07:22:53.779Z,62.77
2017-12-05T07:23:53.764Z,62.87
2017-12-05T07:24:53.800Z,62.57
2017-12-05T07:25:53.896Z,62.87
2017-12-05T07:26:53.852Z,62.77
2017-12-05T07:27:54.241Z,62.77
2017-12-05T07:28:53.949Z,62.67
2017-12-05T07:29:54.002Z,62.19
2017-12-05T07:30:53.957Z,62.57
2017-12-05T07:31:54.045Z,62.38
2017-12-05T07:32:54.086Z,62.48
2017-12-05T07:33:54.362Z,62.38
2017-12-05T07:34:54.467Z,62.38
2017-12-05T07:35:54.162Z,62.48
2017-12-05T07:36:54.158Z,62.19
2017-12-05T07:37:54.193Z,62.29
2017-12-05T07:38:54.206Z,62.38
2017-12-05T07:39:54.306Z,62.29
2017-12-05T07:40:54.324Z,62.29
2017-12-05T07:41:54.662Z,62.29
2017-12-05T07:42:54.344Z,62.19
2017-12-05T07:43:54.363Z,62.29
2017-12-05T07:44:54.438Z,62.29
2017-12-05T07:45:54.490Z,62.19
2017-12-05T07:46:54.474Z,62.09
2017-12-05T07:47:54.485Z,62.19
2017-12-05T07:48:54.862Z,62.19
2017-12-05T07:49:54.619Z,62.09
2017-12-05T07:50:54.578Z,62.29
2017-12-05T07:51:54.675Z,62.29
2017-12-05T07:52:54.637Z,62.19
2017-12-05T07:53:54.718Z,62.38
2017-12-05T07:54:55.065Z,62.38
2017-12-05T07:55:54.780Z,62.48
2017-12-05T07:56:54.829Z,62.57
2017-12-05T07:57:54.844Z,62.57
2017-12-05T07:58:54.827Z,62.48
2017-12-05T07:59:54.875Z,62.57
2017-12-05T08:00:55.258Z,62.29
2017-12-05T08:01:54.942Z,62.29
2017-12-05T08:02:54.971Z,62.29
2017-12-05T08:03:55.027Z,62.38
2017-12-05T08:04:55.022Z,62.38
2017-12-05T08:05:55.052Z,62.48
2017-12-05T08:06:55.428Z,62.19
2017-12-05T08:07:55.148Z,62.19
2017-12-05T08:08:55.127Z,62.38
2017-12-05T08:09:55.379Z,62.38
2017-12-05T08:10:55.250Z,62.38
2017-12-05T08:11:55.249Z,62.38
2017-12-05T08:12:55.599Z,62.38
2017-12-05T08:13:55.342Z,62.38
2017-12-05T08:14:55.330Z,62.38
2017-12-05T08:15:55.343Z,62.38
2017-12-05T08:16:55.451Z,62.38
2017-12-05T08:17:55.410Z,62.57
2017-12-05T08:18:55.845Z,62.19
2017-12-05T08:19:55.478Z,62.19
2017-12-05T08:20:55.516Z,62.38
2017-12-05T08:21:55.600Z,62.09
2017-12-05T08:22:55.674Z,62.29
2017-12-05T08:23:55.649Z,62.38
2017-12-05T08:24:55.993Z,62.48
2017-12-05T08:25:55.731Z,62.29
2017-12-05T08:26:55.752Z,62.19
2017-12-05T08:27:55.735Z,62.29
2017-12-05T08:28:55.851Z,62.29
2017-12-05T08:29:55.826Z,62.00
2017-12-05T08:30:56.180Z,62.00
2017-12-05T08:31:55.908Z,61.90
2017-12-05T08:32:55.872Z,61.80
2017-12-05T08:33:55.961Z,61.90
2017-12-05T08:34:56.029Z,62.00
2017-12-05T08:35:55.994Z,61.90
2017-12-05T08:36:56.360Z,61.80
2017-12-05T08:37:56.022Z,61.80
2017-12-05T08:38:56.075Z,62.19
2017-12-05T08:39:56.151Z,62.29
2017-12-05T08:40:56.167Z,62.19
2017-12-05T08:41:56.146Z,62.29
2017-12-05T08:42:56.556Z,62.09
2017-12-05T08:43:56.227Z,62.09
2017-12-05T08:44:56.306Z,61.80
2017-12-05T08:45:56.410Z,61.80
2017-12-05T08:46:56.380Z,62.29
2017-12-05T08:47:56.334Z,61.61
2017-12-05T08:48:56.752Z,61.90
2017-12-05T08:49:56.415Z,61.61
2017-12-05T08:50:56.508Z,61.22
2017-12-05T08:51:56.476Z,61.61
2017-12-05T08:52:56.510Z,61.52
2017-12-05T08:53:56.590Z,61.90
2017-12-05T08:54:56.911Z,61.61
2017-12-05T08:55:56.580Z,61.80
2017-12-05T08:56:56.666Z,61.71
2017-12-05T08:57:56.652Z,61.71
2017-12-05T08:58:56.791Z,61.52
2017-12-05T08:59:56.769Z,61.52
2017-12-05T09:00:57.189Z,61.61
2017-12-05T09:01:56.858Z,61.42
2017-12-05T09:02:56.814Z,61.32
2017-12-05T09:03:56.864Z,61.52
2017-12-05T09:04:56.914Z,61.61
2017-12-05T09:05:57.137Z,61.52
2017-12-05T09:06:57.271Z,61.42
2017-12-05T09:07:57.019Z,61.52
2017-12-05T09:08:57.068Z,61.71
2017-12-05T09:09:57.072Z,61.71
2017-12-05T09:10:57.101Z,61.52
2017-12-05T09:11:57.264Z,61.61
2017-12-05T09:12:57.157Z,61.61
2017-12-05T09:13:57.562Z,61.32
2017-12-05T09:14:57.247Z,61.42
2017-12-05T09:15:57.432Z,61.32
2017-12-05T09:16:57.308Z,61.32
2017-12-05T09:17:57.327Z,61.52
2017-12-05T09:18:57.310Z,61.04
2017-12-05T09:19:57.343Z,61.65
2017-12-05T09:20:57.731Z,61.61
2017-12-05T09:21:57.436Z,61.61
2017-12-05T09:22:57.422Z,61.42
2017-12-05T09:23:57.520Z,61.61
2017-12-05T09:24:57.564Z,61.32
2017-12-05T09:25:57.561Z,61.61
2017-12-05T09:26:57.566Z,61.32
2017-12-05T09:27:57.920Z,61.42
2017-12-05T09:28:57.602Z,61.42
2017-12-05T09:29:57.759Z,61.04
2017-12-05T09:30:57.695Z,61.22
2017-12-05T09:31:57.761Z,61.32
2017-12-05T09:32:57.809Z,61.13
2017-12-05T09:33:57.863Z,61.32
2017-12-05T09:34:58.157Z,60.84
2017-12-05T09:35:57.883Z,60.94
2017-12-05T09:36:57.873Z,61.32
2017-12-05T09:37:57.883Z,61.61
2017-12-05T09:38:57.944Z,61.13
2017-12-05T09:39:58.007Z,61.13
2017-12-05T09:40:57.991Z,60.94
2017-12-05T09:41:58.477Z,60.94
2017-12-05T09:42:58.100Z,60.75
2017-12-05T09:43:58.089Z,60.84
2017-12-05T09:44:58.112Z,60.84
2017-12-05T09:45:58.143Z,60.94
2017-12-05T09:46:58.207Z,60.55
2017-12-05T09:47:58.242Z,61.13
2017-12-05T09:48:58.590Z,61.04
2017-12-05T09:49:58.335Z,60.84
2017-12-05T09:50:58.349Z,61.32
2017-12-05T09:51:58.393Z,60.84
2017-12-05T09:52:58.416Z,61.04
2017-12-05T09:53:58.455Z,61.22
2017-12-05T09:54:58.464Z,60.65
2017-12-05T09:55:58.815Z,61.04
2017-12-05T09:56:58.489Z,61.04
2017-12-05T09:57:58.553Z,61.04
2017-12-05T09:58:58.587Z,61.13
2017-12-05T09:59:58.577Z,60.84
2017-12-05T10:00:58.665Z,60.94
2017-12-05T10:01:58.743Z,60.75
2017-12-05T10:02:59.000Z,60.84
2017-12-05T10:03:58.748Z,60.75
2017-12-05T10:04:58.763Z,60.75
2017-12-05T10:05:58.818Z,60.94
2017-12-05T10:06:59.232Z,61.13
2017-12-05T10:07:58.871Z,60.84
2017-12-05T10:08:58.836Z,60.84
2017-12-05T10:09:59.239Z,60.84
2017-12-05T10:10:58.936Z,60.75
2017-12-05T10:11:58.927Z,60.75
2017-12-05T10:12:59.032Z,60.75
2017-12-05T10:13:59.058Z,60.55
2017-12-05T10:14:59.038Z,60.75
2017-12-05T10:15:59.102Z,61.04
2017-12-05T10:16:59.435Z,60.55
2017-12-05T10:17:59.166Z,60.84
2017-12-05T10:18:59.261Z,60.75
2017-12-05T10:19:59.177Z,60.68
2017-12-05T10:20:59.257Z,60.65
2017-12-05T10:21:59.364Z,60.75
2017-12-05T10:22:59.270Z,60.94
2017-12-05T10:23:59.815Z,60.17
2017-12-05T10:24:59.332Z,60.36
2017-12-05T10:25:59.412Z,60.27
2017-12-05T10:26:59.462Z,60.65
2017-12-05T10:27:59.438Z,60.36
2017-12-05T10:28:59.506Z,60.46
2017-12-05T10:29:59.835Z,60.17
2017-12-05T10:30:59.513Z,60.94
2017-12-05T10:31:59.618Z,60.65
2017-12-05T10:32:59.577Z,60.75
2017-12-05T10:33:59.661Z,60.39
2017-12-05T10:34:59.661Z,60.30
2017-12-05T10:36:00.022Z,60.27
2017-12-05T10:36:59.724Z,60.55
2017-12-05T10:37:59.752Z,60.65
2017-12-05T10:38:59.770Z,60.46
2017-12-05T10:39:59.968Z,60.27
2017-12-05T10:40:59.872Z,60.17
2017-12-05T10:42:00.212Z,60.46
2017-12-05T10:42:59.941Z,60.75
2017-12-05T10:43:59.968Z,60.27
2017-12-05T10:45:00.040Z,60.36
2017-12-05T10:46:00.038Z,60.94
2017-12-05T10:47:00.062Z,60.46
2017-12-05T10:48:00.395Z,60.36
2017-12-05T10:49:00.089Z,60.75
2017-12-05T10:50:00.318Z,60.36
2017-12-05T10:51:00.177Z,60.07
2017-12-05T10:52:00.237Z,60.20
2017-12-05T10:53:00.262Z,60.17
2017-12-05T10:54:00.606Z,60.17
2017-12-05T10:55:00.324Z,60.36
2017-12-05T10:56:00.359Z,59.78
2017-12-05T10:57:00.317Z,59.78
2017-12-05T10:58:00.371Z,59.91
2017-12-05T10:59:00.401Z,60.36
2017-12-05T11:00:00.762Z,60.36
2017-12-05T11:01:00.462Z,60.17
2017-12-05T11:02:00.627Z,60.20
2017-12-05T11:03:00.574Z,60.07
2017-12-05T11:04:00.618Z,60.17
2017-12-05T11:05:00.571Z,60.17
2017-12-05T11:06:00.947Z,60.17
2017-12-05T11:07:00.745Z,60.10
2017-12-05T11:08:00.787Z,60.30
2017-12-05T11:09:00.716Z,60.27
2017-12-05T11:10:00.726Z,60.07
2017-12-05T11:11:00.802Z,60.27
2017-12-05T11:12:01.154Z,60.17
2017-12-05T11:13:00.840Z,60.36
2017-12-05T11:14:00.910Z,60.30
2017-12-05T11:15:00.932Z,59.88
2017-12-05T11:16:00.908Z,60.46
2017-12-05T11:17:00.993Z,60.39
2017-12-05T11:18:01.331Z,60.07
2017-12-05T11:19:01.024Z,60.36
2017-12-05T11:20:01.086Z,60.07
2017-12-05T11:21:01.132Z,60.20
2017-12-05T11:22:01.159Z,60.36
2017-12-05T11:23:01.199Z,59.78
2017-12-05T11:24:01.510Z,60.20
2017-12-05T11:25:01.242Z,60.07
2017-12-05T11:26:01.231Z,59.72
2017-12-05T11:27:01.325Z,60.07
2017-12-05T11:28:01.345Z,59.69
2017-12-05T11:29:01.361Z,59.78
2017-12-05T11:30:01.709Z,59.11
2017-12-05T11:31:01.440Z,59.97
2017-12-05T11:32:01.406Z,59.40
2017-12-05T11:33:01.504Z,59.23
2017-12-05T11:34:01.493Z,59.40
2017-12-05T11:35:01.603Z,59.69
2017-12-05T11:36:01.879Z,59.72
2017-12-05T11:37:01.616Z,59.88
2017-12-05T11:38:01.649Z,59.30
2017-12-05T11:39:01.650Z,59.40
2017-12-05T11:40:01.711Z,59.97
2017-12-05T11:41:01.757Z,60.07
2017-12-05T11:42:01.747Z,60.20
2017-12-05T11:43:02.114Z,60.07
2017-12-05T11:44:01.808Z,59.78
2017-12-05T11:45:01.900Z,59.78
2017-12-05T11:46:01.907Z,60.17
2017-12-05T11:47:01.866Z,59.62
2017-12-05T11:48:01.982Z,59.78
2017-12-05T11:49:01.999Z,59.43
2017-12-05T11:50:02.351Z,59.49
2017-12-05T11:51:02.071Z,59.88
2017-12-05T11:52:02.017Z,59.69
2017-12-05T11:53:02.060Z,59.30
2017-12-05T11:54:02.132Z,59.20
2017-12-05T11:55:02.183Z,59.69
2017-12-05T11:56:02.211Z,59.30
2017-12-05T11:57:02.542Z,59.40
2017-12-05T11:58:02.230Z,59.40
2017-12-05T11:59:02.310Z,59.69
2017-12-05T12:00:02.509Z,59.30
2017-12-05T12:01:02.393Z,59.30
2017-12-05T12:02:02.421Z,59.40
2017-12-05T12:03:02.364Z,59.59
2017-12-05T12:04:02.847Z,59.40
2017-12-05T12:05:02.422Z,59.40
2017-12-05T12:06:02.532Z,59.88
2017-12-05T12:07:02.553Z,59.30
2017-12-05T12:08:02.575Z,59.30
2017-12-05T12:09:02.583Z,59.11
2017-12-05T12:10:02.669Z,59.30
2017-12-05T12:11:02.977Z,59.11
2017-12-05T12:12:02.686Z,59.04
2017-12-05T12:13:02.670Z,59.30
2017-12-05T12:14:02.777Z,59.30
2017-12-05T12:15:02.729Z,59.40
2017-12-05T12:16:02.757Z,59.20
2017-12-05T12:17:02.815Z,59.30
2017-12-05T12:18:03.179Z,59.30
2017-12-05T12:19:02.871Z,59.30
2017-12-05T12:20:02.952Z,59.49
2017-12-05T12:21:02.973Z,59.40
2017-12-05T12:22:02.962Z,59.40
2017-12-05T12:23:03.295Z,59.49
2017-12-05T12:24:03.187Z,59.78
2017-12-05T12:25:03.426Z,59.97
2017-12-05T12:26:03.107Z,59.49
2017-12-05T12:27:03.123Z,59.69
2017-12-05T12:28:03.495Z,59.97
2017-12-05T12:29:03.239Z,59.69
2017-12-05T12:30:03.304Z,59.78
2017-12-05T12:31:03.305Z,59.59
2017-12-05T12:32:03.605Z,59.97
2017-12-05T12:33:03.384Z,59.78
2017-12-05T12:34:03.332Z,59.30
2017-12-05T12:35:03.395Z,59.49
2017-12-05T12:36:03.464Z,59.30
2017-12-05T12:37:03.565Z,59.78
2017-12-05T12:38:03.504Z,59.40
2017-12-05T12:39:03.872Z,59.97
2017-12-05T12:40:03.503Z,59.59
2017-12-05T12:41:03.540Z,59.97
2017-12-05T12:42:03.628Z,59.30
2017-12-05T12:43:03.675Z,59.20
2017-12-05T12:44:03.674Z,59.40
2017-12-05T12:45:03.815Z,59.49
2017-12-05T12:46:04.035Z,59.69
2017-12-05T12:47:03.783Z,59.97
2017-12-05T12:48:03.818Z,59.88
2017-12-05T12:49:03.792Z,59.30
2017-12-05T12:50:03.832Z,59.49
2017-12-05T12:51:03.895Z,59.01
2017-12-05T12:52:03.939Z,59.69
2017-12-05T12:53:04.256Z,59.49